FALE

King Shaka International Airport

Durban, South Africa
METAR FALE 231400Z 04017KT CAVOK 29/20 Q1002 NOSIG
Observed Flight Rules
Feb-23 @ 14:00 UTC (27 minutes ago) Visual Flight Rules
Wind Visibility Clouds
40° at 17 knots 10,000+ meters
  • Clear skies
Temperatures Readings
Current 29°C / 84°F
Dewpoint 20°C / 68°F
Humidity 58%
Altimeter 29.59" Hg
Pressure 1002 hPa
Elevation 109
METAR FALE 231400Z 04017KT CAVOK 29/20 Q1002 NOSIG
Observed Flight Rules
Feb-23 @ 14:00 UTC
(27 minutes ago)
VFR
Wind Visibility
40° at 17 knots 10,000+ meters
Clouds
  • Clear skies
Temperature Dewpoint
29°C / 84°F 20°C / 68°F
Humidity Altimeter Pressure
58% 29.59" Hg 1002 hPa